sensor_id;sensor_type;location;lat;lon;timestamp;temperature;humidity
35373;DHT22;21476;51.652;7.852;2022-10-22T00:00:04;11.40;99.90
35373;DHT22;21476;51.652;7.852;2022-10-22T00:02:30;11.40;99.90
35373;DHT22;21476;51.652;7.852;2022-10-22T00:04:55;11.30;99.90
35373;DHT22;21476;51.652;7.852;2022-10-22T00:07:21;11.30;99.90
35373;DHT22;21476;51.652;7.852;2022-10-22T00:09:47;11.20;99.90
35373;DHT22;21476;51.652;7.852;2022-10-22T00:12:14;11.30;99.90
35373;DHT22;21476;51.652;7.852;2022-10-22T00:14:40;11.30;99.90
35373;DHT22;21476;51.652;7.852;2022-10-22T00:17:06;11.20;99.90
35373;DHT22;21476;51.652;7.852;2022-10-22T00:19:32;11.20;99.90
35373;DHT22;21476;51.652;7.852;2022-10-22T00:21:57;11.20;99.90
35373;DHT22;21476;51.652;7.852;2022-10-22T00:24:23;11.10;99.90
35373;DHT22;21476;51.652;7.852;2022-10-22T00:26:49;11.20;99.90
35373;DHT22;21476;51.652;7.852;2022-10-22T00:29:15;11.20;99.90
35373;DHT22;21476;51.652;7.852;2022-10-22T00:31:44;11.30;99.90
35373;DHT22;21476;51.652;7.852;2022-10-22T00:34:17;11.30;99.90
35373;DHT22;21476;51.652;7.852;2022-10-22T00:36:44;11.30;99.90
35373;DHT22;21476;51.652;7.852;2022-10-22T00:39:11;11.30;99.90
35373;DHT22;21476;51.652;7.852;2022-10-22T00:41:37;11.30;99.90
35373;DHT22;21476;51.652;7.852;2022-10-22T00:44:05;11.30;99.90
35373;DHT22;21476;51.652;7.852;2022-10-22T00:46:31;11.40;99.90
35373;DHT22;21476;51.652;7.852;2022-10-22T00:48:59;11.40;99.90
35373;DHT22;21476;51.652;7.852;2022-10-22T00:51:32;11.50;99.90
35373;DHT22;21476;51.652;7.852;2022-10-22T00:54:04;11.40;99.90
35373;DHT22;21476;51.652;7.852;2022-10-22T00:56:32;11.40;99.90
35373;DHT22;21476;51.652;7.852;2022-10-22T00:58:59;11.40;99.90
35373;DHT22;21476;51.652;7.852;2022-10-22T01:01:27;11.50;99.90
35373;DHT22;21476;51.652;7.852;2022-10-22T01:03:53;11.60;99.90
35373;DHT22;21476;51.652;7.852;2022-10-22T01:06:28;11.60;99.90
35373;DHT22;21476;51.652;7.852;2022-10-22T01:18:42;12.00;99.90
35373;DHT22;21476;51.652;7.852;2022-10-22T01:21:14;12.20;99.90
35373;DHT22;21476;51.652;7.852;2022-10-22T01:29:46;12.50;99.90
35373;DHT22;21476;51.652;7.852;2022-10-22T01:32:16;12.60;99.90
35373;DHT22;21476;51.652;7.852;2022-10-22T01:34:45;12.60;99.90
35373;DHT22;21476;51.652;7.852;2022-10-22T01:37:13;12.50;99.90
35373;DHT22;21476;51.652;7.852;2022-10-22T01:39:42;12.40;99.90
35373;DHT22;21476;51.652;7.852;2022-10-22T01:42:11;12.40;99.90
35373;DHT22;21476;51.652;7.852;2022-10-22T01:44:38;12.30;99.90
35373;DHT22;21476;51.652;7.852;2022-10-22T01:56:12;12.10;99.90
35373;DHT22;21476;51.652;7.852;2022-10-22T01:58:44;12.10;99.90
35373;DHT22;21476;51.652;7.852;2022-10-22T02:01:42;12.00;99.90
35373;DHT22;21476;51.652;7.852;2022-10-22T02:06:40;11.90;99.90
35373;DHT22;21476;51.652;7.852;2022-10-22T02:09:08;11.80;99.90
35373;DHT22;21476;51.652;7.852;2022-10-22T02:11:34;11.80;99.90
35373;DHT22;21476;51.652;7.852;2022-10-22T02:14:02;11.80;99.90
35373;DHT22;21476;51.652;7.852;2022-10-22T02:16:49;11.70;99.90
35373;DHT22;21476;51.652;7.852;2022-10-22T02:21:50;11.60;99.90
35373;DHT22;21476;51.652;7.852;2022-10-22T02:24:17;11.50;99.90
35373;DHT22;21476;51.652;7.852;2022-10-22T02:27:22;11.50;99.90
35373;DHT22;21476;51.652;7.852;2022-10-22T02:30:08;11.40;99.90
35373;DHT22;21476;51.652;7.852;2022-10-22T02:35:22;11.20;99.90
35373;DHT22;21476;51.652;7.852;2022-10-22T02:37:49;11.20;99.90
35373;DHT22;21476;51.652;7.852;2022-10-22T02:40:16;11.20;99.90
35373;DHT22;21476;51.652;7.852;2022-10-22T02:42:42;11.20;99.90
35373;DHT22;21476;51.652;7.852;2022-10-22T02:45:10;11.20;99.90
35373;DHT22;21476;51.652;7.852;2022-10-22T02:47:36;11.20;99.90
35373;DHT22;21476;51.652;7.852;2022-10-22T02:50:02;11.20;99.90
35373;DHT22;21476;51.652;7.852;2022-10-22T02:52:27;11.10;99.90
35373;DHT22;21476;51.652;7.852;2022-10-22T02:54:53;11.00;99.90
35373;DHT22;21476;51.652;7.852;2022-10-22T02:57:19;11.00;99.90
35373;DHT22;21476;51.652;7.852;2022-10-22T02:59:44;11.10;99.90
35373;DHT22;21476;51.652;7.852;2022-10-22T03:02:10;11.00;99.90
35373;DHT22;21476;51.652;7.852;2022-10-22T03:04:35;11.00;99.90
35373;DHT22;21476;51.652;7.852;2022-10-22T03:07:01;11.10;99.90
35373;DHT22;21476;51.652;7.852;2022-10-22T03:09:27;11.10;99.90
35373;DHT22;21476;51.652;7.852;2022-10-22T03:11:52;11.00;99.90
35373;DHT22;21476;51.652;7.852;2022-10-22T03:14:18;11.10;99.90
35373;DHT22;21476;51.652;7.852;2022-10-22T03:16:43;11.10;99.90
35373;DHT22;21476;51.652;7.852;2022-10-22T03:19:09;11.10;99.90
35373;DHT22;21476;51.652;7.852;2022-10-22T03:21:44;11.10;99.90
35373;DHT22;21476;51.652;7.852;2022-10-22T03:24:15;11.00;99.90
35373;DHT22;21476;51.652;7.852;2022-10-22T03:26:42;11.00;99.90
35373;DHT22;21476;51.652;7.852;2022-10-22T03:29:14;11.10;99.90
35373;DHT22;21476;51.652;7.852;2022-10-22T03:31:40;11.10;99.90
35373;DHT22;21476;51.652;7.852;2022-10-22T03:34:05;11.10;99.90
35373;DHT22;21476;51.652;7.852;2022-10-22T03:36:31;11.10;99.90
35373;DHT22;21476;51.652;7.852;2022-10-22T03:38:59;11.10;99.90
35373;DHT22;21476;51.652;7.852;2022-10-22T03:41:25;11.20;99.90
35373;DHT22;21476;51.652;7.852;2022-10-22T03:43:52;11.20;99.90
35373;DHT22;21476;51.652;7.852;2022-10-22T03:46:19;11.20;99.90
35373;DHT22;21476;51.652;7.852;2022-10-22T03:48:44;11.20;99.90
35373;DHT22;21476;51.652;7.852;2022-10-22T03:51:10;11.10;99.90
35373;DHT22;21476;51.652;7.852;2022-10-22T03:53:36;11.20;99.90
35373;DHT22;21476;51.652;7.852;2022-10-22T03:56:06;11.20;99.90
35373;DHT22;21476;51.652;7.852;2022-10-22T03:58:31;11.20;99.90
35373;DHT22;21476;51.652;7.852;2022-10-22T04:01:05;11.20;99.90
35373;DHT22;21476;51.652;7.852;2022-10-22T04:03:31;11.10;99.90
35373;DHT22;21476;51.652;7.852;2022-10-22T04:06:05;11.10;99.90
35373;DHT22;21476;51.652;7.852;2022-10-22T04:08:31;11.10;99.90
35373;DHT22;21476;51.652;7.852;2022-10-22T04:10:57;11.10;99.90
35373;DHT22;21476;51.652;7.852;2022-10-22T04:13:23;11.10;99.90
35373;DHT22;21476;51.652;7.852;2022-10-22T04:15:48;11.10;99.90
35373;DHT22;21476;51.652;7.852;2022-10-22T04:18:17;11.10;99.90
35373;DHT22;21476;51.652;7.852;2022-10-22T04:20:43;11.10;99.90
35373;DHT22;21476;51.652;7.852;2022-10-22T04:23:08;11.10;99.90
35373;DHT22;21476;51.652;7.852;2022-10-22T04:25:34;11.10;99.90
35373;DHT22;21476;51.652;7.852;2022-10-22T04:28:00;11.10;99.90
35373;DHT22;21476;51.652;7.852;2022-10-22T04:30:26;11.10;99.90
35373;DHT22;21476;51.652;7.852;2022-10-22T04:32:52;11.00;99.90
35373;DHT22;21476;51.652;7.852;2022-10-22T04:35:17;11.00;99.90
35373;DHT22;21476;51.652;7.852;2022-10-22T04:37:43;10.90;99.90
35373;DHT22;21476;51.652;7.852;2022-10-22T04:40:09;10.80;99.90
35373;DHT22;21476;51.652;7.852;2022-10-22T04:42:35;10.70;99.90
35373;DHT22;21476;51.652;7.852;2022-10-22T04:45:01;10.70;99.90
35373;DHT22;21476;51.652;7.852;2022-10-22T04:47:26;10.60;99.90
35373;DHT22;21476;51.652;7.852;2022-10-22T04:49:52;10.60;99.90
35373;DHT22;21476;51.652;7.852;2022-10-22T04:52:17;10.60;99.90
35373;DHT22;21476;51.652;7.852;2022-10-22T04:54:43;10.60;99.90
35373;DHT22;21476;51.652;7.852;2022-10-22T04:57:08;10.60;99.90
35373;DHT22;21476;51.652;7.852;2022-10-22T04:59:34;10.70;99.90
35373;DHT22;21476;51.652;7.852;2022-10-22T05:02:00;10.70;99.90
35373;DHT22;21476;51.652;7.852;2022-10-22T05:04:25;10.80;99.90
35373;DHT22;21476;51.652;7.852;2022-10-22T05:06:51;10.80;99.90
35373;DHT22;21476;51.652;7.852;2022-10-22T05:09:19;10.80;99.90
35373;DHT22;21476;51.652;7.852;2022-10-22T05:11:46;10.90;99.90
35373;DHT22;21476;51.652;7.852;2022-10-22T05:14:21;10.90;99.90
35373;DHT22;21476;51.652;7.852;2022-10-22T05:16:47;10.90;99.90
35373;DHT22;21476;51.652;7.852;2022-10-22T05:19:23;10.80;99.90
35373;DHT22;21476;51.652;7.852;2022-10-22T05:21:50;10.70;99.90
35373;DHT22;21476;51.652;7.852;2022-10-22T05:24:16;10.70;99.90
35373;DHT22;21476;51.652;7.852;2022-10-22T05:26:42;10.80;99.90
35373;DHT22;21476;51.652;7.852;2022-10-22T05:29:07;10.90;99.90
35373;DHT22;21476;51.652;7.852;2022-10-22T05:31:33;10.90;99.90
35373;DHT22;21476;51.652;7.852;2022-10-22T05:33:59;11.00;99.90
35373;DHT22;21476;51.652;7.852;2022-10-22T05:36:25;10.90;99.90
35373;DHT22;21476;51.652;7.852;2022-10-22T05:38:51;10.70;99.90
35373;DHT22;21476;51.652;7.852;2022-10-22T05:41:19;11.00;99.90
35373;DHT22;21476;51.652;7.852;2022-10-22T05:43:45;11.10;99.90
35373;DHT22;21476;51.652;7.852;2022-10-22T05:46:13;11.10;99.90
35373;DHT22;21476;51.652;7.852;2022-10-22T05:48:40;11.00;99.90
35373;DHT22;21476;51.652;7.852;2022-10-22T05:51:11;11.10;99.90
35373;DHT22;21476;51.652;7.852;2022-10-22T05:53:39;11.20;99.90
35373;DHT22;21476;51.652;7.852;2022-10-22T05:56:08;11.30;99.90
35373;DHT22;21476;51.652;7.852;2022-10-22T05:58:35;11.50;99.90
35373;DHT22;21476;51.652;7.852;2022-10-22T06:01:11;11.60;99.90
35373;DHT22;21476;51.652;7.852;2022-10-22T06:03:36;11.60;99.90
35373;DHT22;21476;51.652;7.852;2022-10-22T06:06:16;11.60;99.90
35373;DHT22;21476;51.652;7.852;2022-10-22T06:08:43;11.70;99.90
35373;DHT22;21476;51.652;7.852;2022-10-22T06:11:09;11.80;99.90
35373;DHT22;21476;51.652;7.852;2022-10-22T06:13:35;11.80;99.90
35373;DHT22;21476;51.652;7.852;2022-10-22T06:16:00;11.80;99.90
35373;DHT22;21476;51.652;7.852;2022-10-22T06:18:26;11.80;99.90
35373;DHT22;21476;51.652;7.852;2022-10-22T06:20:52;11.80;99.90
35373;DHT22;21476;51.652;7.852;2022-10-22T06:23:17;11.80;99.90
35373;DHT22;21476;51.652;7.852;2022-10-22T06:25:43;11.80;99.90
35373;DHT22;21476;51.652;7.852;2022-10-22T06:28:09;11.80;99.90
35373;DHT22;21476;51.652;7.852;2022-10-22T06:30:36;11.90;99.90
35373;DHT22;21476;51.652;7.852;2022-10-22T06:33:02;12.00;99.90
35373;DHT22;21476;51.652;7.852;2022-10-22T06:35:27;12.10;99.90
35373;DHT22;21476;51.652;7.852;2022-10-22T06:37:53;12.30;99.90
35373;DHT22;21476;51.652;7.852;2022-10-22T06:40:19;12.50;99.90
35373;DHT22;21476;51.652;7.852;2022-10-22T06:42:44;12.70;99.90
35373;DHT22;21476;51.652;7.852;2022-10-22T06:45:10;13.40;99.90
35373;DHT22;21476;51.652;7.852;2022-10-22T06:47:36;13.80;99.90
35373;DHT22;21476;51.652;7.852;2022-10-22T06:50:02;14.20;99.90
35373;DHT22;21476;51.652;7.852;2022-10-22T06:52:27;14.30;99.90
35373;DHT22;21476;51.652;7.852;2022-10-22T06:54:53;14.80;99.90
35373;DHT22;21476;51.652;7.852;2022-10-22T06:57:18;15.90;99.90
35373;DHT22;21476;51.652;7.852;2022-10-22T06:59:45;17.00;99.90
35373;DHT22;21476;51.652;7.852;2022-10-22T07:02:10;18.10;99.90
35373;DHT22;21476;51.652;7.852;2022-10-22T07:04:36;19.40;99.90
35373;DHT22;21476;51.652;7.852;2022-10-22T07:07:01;20.50;99.90
35373;DHT22;21476;51.652;7.852;2022-10-22T07:09:27;21.10;99.90
35373;DHT22;21476;51.652;7.852;2022-10-22T07:11:53;21.80;99.90
35373;DHT22;21476;51.652;7.852;2022-10-22T07:14:18;22.30;99.90
35373;DHT22;21476;51.652;7.852;2022-10-22T07:16:44;22.20;99.90
35373;DHT22;21476;51.652;7.852;2022-10-22T07:19:12;22.60;99.90
35373;DHT22;21476;51.652;7.852;2022-10-22T07:21:38;22.90;99.90
35373;DHT22;21476;51.652;7.852;2022-10-22T07:24:04;23.10;99.90
35373;DHT22;21476;51.652;7.852;2022-10-22T07:26:30;23.60;99.90
35373;DHT22;21476;51.652;7.852;2022-10-22T07:28:57;23.50;99.90
35373;DHT22;21476;51.652;7.852;2022-10-22T07:31:23;24.20;99.90
35373;DHT22;21476;51.652;7.852;2022-10-22T07:33:49;24.10;99.90
35373;DHT22;21476;51.652;7.852;2022-10-22T07:36:15;24.40;99.90
35373;DHT22;21476;51.652;7.852;2022-10-22T07:38:45;24.50;99.90
35373;DHT22;21476;51.652;7.852;2022-10-22T07:41:12;25.00;99.90
35373;DHT22;21476;51.652;7.852;2022-10-22T07:43:38;25.40;99.90
35373;DHT22;21476;51.652;7.852;2022-10-22T07:46:03;25.90;99.90
35373;DHT22;21476;51.652;7.852;2022-10-22T07:48:29;26.30;99.90
35373;DHT22;21476;51.652;7.852;2022-10-22T07:50:55;26.00;99.90
35373;DHT22;21476;51.652;7.852;2022-10-22T07:53:22;25.70;99.90
35373;DHT22;21476;51.652;7.852;2022-10-22T07:55:49;25.60;99.90
35373;DHT22;21476;51.652;7.852;2022-10-22T07:58:18;25.60;99.90
35373;DHT22;21476;51.652;7.852;2022-10-22T08:00:45;26.40;99.90
35373;DHT22;21476;51.652;7.852;2022-10-22T08:03:11;26.90;99.90
35373;DHT22;21476;51.652;7.852;2022-10-22T08:05:37;25.90;99.90
35373;DHT22;21476;51.652;7.852;2022-10-22T08:08:09;25.10;99.90
35373;DHT22;21476;51.652;7.852;2022-10-22T08:10:34;23.90;99.90
35373;DHT22;21476;51.652;7.852;2022-10-22T08:13:00;22.90;99.90
35373;DHT22;21476;51.652;7.852;2022-10-22T08:15:26;21.80;99.90
35373;DHT22;21476;51.652;7.852;2022-10-22T08:17:52;20.60;99.90
35373;DHT22;21476;51.652;7.852;2022-10-22T08:20:18;19.70;99.90
35373;DHT22;21476;51.652;7.852;2022-10-22T08:22:44;19.20;99.90
35373;DHT22;21476;51.652;7.852;2022-10-22T08:25:10;19.10;99.90
35373;DHT22;21476;51.652;7.852;2022-10-22T08:27:36;18.90;99.90
35373;DHT22;21476;51.652;7.852;2022-10-22T08:30:02;18.80;99.90
35373;DHT22;21476;51.652;7.852;2022-10-22T08:32:29;18.90;99.90
35373;DHT22;21476;51.652;7.852;2022-10-22T08:34:55;18.90;99.90
35373;DHT22;21476;51.652;7.852;2022-10-22T08:37:21;19.20;99.90
35373;DHT22;21476;51.652;7.852;2022-10-22T08:39:46;20.20;99.90
35373;DHT22;21476;51.652;7.852;2022-10-22T08:44:59;23.00;99.90
35373;DHT22;21476;51.652;7.852;2022-10-22T08:47:46;23.90;99.90
35373;DHT22;21476;51.652;7.852;2022-10-22T08:50:18;24.90;99.90
35373;DHT22;21476;51.652;7.852;2022-10-22T08:52:50;25.40;99.90
35373;DHT22;21476;51.652;7.852;2022-10-22T08:55:18;25.60;99.90
35373;DHT22;21476;51.652;7.852;2022-10-22T09:00:14;26.60;99.90
35373;DHT22;21476;51.652;7.852;2022-10-22T09:03:04;25.40;99.90
35373;DHT22;21476;51.652;7.852;2022-10-22T09:08:22;24.60;99.90
35373;DHT22;21476;51.652;7.852;2022-10-22T09:10:52;25.10;99.90
35373;DHT22;21476;51.652;7.852;2022-10-22T09:13:21;25.50;99.90
35373;DHT22;21476;51.652;7.852;2022-10-22T09:16:00;25.20;99.90
35373;DHT22;21476;51.652;7.852;2022-10-22T09:18:42;23.90;99.90
35373;DHT22;21476;51.652;7.852;2022-10-22T09:21:32;22.90;99.90
35373;DHT22;21476;51.652;7.852;2022-10-22T09:26:52;22.10;99.90
35373;DHT22;21476;51.652;7.852;2022-10-22T09:29:21;21.50;99.90
35373;DHT22;21476;51.652;7.852;2022-10-22T09:31:48;21.00;99.90
35373;DHT22;21476;51.652;7.852;2022-10-22T09:34:19;20.50;99.90
35373;DHT22;21476;51.652;7.852;2022-10-22T09:36:45;20.20;99.90
35373;DHT22;21476;51.652;7.852;2022-10-22T09:39:23;20.00;99.90
35373;DHT22;21476;51.652;7.852;2022-10-22T09:41:49;20.50;99.90
35373;DHT22;21476;51.652;7.852;2022-10-22T09:44:16;20.70;99.90
35373;DHT22;21476;51.652;7.852;2022-10-22T09:46:43;20.80;99.90
35373;DHT22;21476;51.652;7.852;2022-10-22T09:49:12;20.50;99.90
35373;DHT22;21476;51.652;7.852;2022-10-22T09:51:54;20.30;99.90
35373;DHT22;21476;51.652;7.852;2022-10-22T09:54:24;20.00;99.90
35373;DHT22;21476;51.652;7.852;2022-10-22T09:56:55;19.90;99.90
35373;DHT22;21476;51.652;7.852;2022-10-22T09:59:37;19.60;99.90
35373;DHT22;21476;51.652;7.852;2022-10-22T10:02:21;19.20;99.90
35373;DHT22;21476;51.652;7.852;2022-10-22T10:07:16;18.60;99.90
35373;DHT22;21476;51.652;7.852;2022-10-22T10:09:42;18.50;99.90
35373;DHT22;21476;51.652;7.852;2022-10-22T10:20:44;18.00;99.90
35373;DHT22;21476;51.652;7.852;2022-10-22T10:26:30;18.10;99.90
35373;DHT22;21476;51.652;7.852;2022-10-22T10:34:45;18.50;99.90
35373;DHT22;21476;51.652;7.852;2022-10-22T10:37:20;18.80;99.90
35373;DHT22;21476;51.652;7.852;2022-10-22T10:52:00;20.20;99.90
35373;DHT22;21476;51.652;7.852;2022-10-22T10:57:38;19.80;99.90
35373;DHT22;21476;51.652;7.852;2022-10-22T11:00:19;19.40;99.90
35373;DHT22;21476;51.652;7.852;2022-10-22T11:02:53;19.00;99.90
35373;DHT22;21476;51.652;7.852;2022-10-22T11:05:27;18.60;99.90
35373;DHT22;21476;51.652;7.852;2022-10-22T11:07:58;18.40;99.90
35373;DHT22;21476;51.652;7.852;2022-10-22T11:10:45;18.30;99.90
35373;DHT22;21476;51.652;7.852;2022-10-22T11:13:54;18.10;99.90
35373;DHT22;21476;51.652;7.852;2022-10-22T11:21:52;17.80;99.90
35373;DHT22;21476;51.652;7.852;2022-10-22T11:24:24;17.70;99.90
35373;DHT22;21476;51.652;7.852;2022-10-22T11:26:56;17.50;99.90
35373;DHT22;21476;51.652;7.852;2022-10-22T11:29:29;17.60;99.90
35373;DHT22;21476;51.652;7.852;2022-10-22T11:31:58;17.60;99.90
35373;DHT22;21476;51.652;7.852;2022-10-22T11:34:28;17.50;99.90
35373;DHT22;21476;51.652;7.852;2022-10-22T11:36:57;17.50;99.90
35373;DHT22;21476;51.652;7.852;2022-10-22T11:42:19;17.50;99.90
35373;DHT22;21476;51.652;7.852;2022-10-22T11:47:31;17.40;99.90
35373;DHT22;21476;51.652;7.852;2022-10-22T11:50:15;17.40;99.90
35373;DHT22;21476;51.652;7.852;2022-10-22T11:53:00;17.40;99.90
35373;DHT22;21476;51.652;7.852;2022-10-22T11:58:42;17.40;99.90
35373;DHT22;21476;51.652;7.852;2022-10-22T12:03:47;17.60;99.90
35373;DHT22;21476;51.652;7.852;2022-10-22T12:08:49;17.90;99.90
35373;DHT22;21476;51.652;7.852;2022-10-22T12:11:28;18.10;99.90
35373;DHT22;21476;51.652;7.852;2022-10-22T12:14:30;18.20;99.90
35373;DHT22;21476;51.652;7.852;2022-10-22T12:17:02;18.20;99.90
35373;DHT22;21476;51.652;7.852;2022-10-22T12:19:37;18.30;99.90
35373;DHT22;21476;51.652;7.852;2022-10-22T12:22:20;18.30;99.90
35373;DHT22;21476;51.652;7.852;2022-10-22T12:24:49;18.20;99.90
35373;DHT22;21476;51.652;7.852;2022-10-22T12:27:22;18.20;99.90
35373;DHT22;21476;51.652;7.852;2022-10-22T12:29:53;18.20;99.90
35373;DHT22;21476;51.652;7.852;2022-10-22T12:32:19;18.10;99.90
35373;DHT22;21476;51.652;7.852;2022-10-22T12:34:50;18.00;99.90
35373;DHT22;21476;51.652;7.852;2022-10-22T12:37:17;18.10;99.90
35373;DHT22;21476;51.652;7.852;2022-10-22T12:39:44;18.00;99.90
35373;DHT22;21476;51.652;7.852;2022-10-22T12:42:13;18.00;99.90
35373;DHT22;21476;51.652;7.852;2022-10-22T12:44:39;18.00;99.90
35373;DHT22;21476;51.652;7.852;2022-10-22T12:47:06;18.00;99.90
35373;DHT22;21476;51.652;7.852;2022-10-22T12:49:38;18.00;99.90
35373;DHT22;21476;51.652;7.852;2022-10-22T12:52:05;18.00;99.90
35373;DHT22;21476;51.652;7.852;2022-10-22T12:54:33;18.10;99.90
35373;DHT22;21476;51.652;7.852;2022-10-22T12:57:00;18.00;99.90
35373;DHT22;21476;51.652;7.852;2022-10-22T12:59:34;17.90;99.90
35373;DHT22;21476;51.652;7.852;2022-10-22T13:02:01;18.00;99.90
35373;DHT22;21476;51.652;7.852;2022-10-22T13:04:34;18.00;99.90
35373;DHT22;21476;51.652;7.852;2022-10-22T13:07:05;18.10;99.90
35373;DHT22;21476;51.652;7.852;2022-10-22T13:09:39;18.10;99.90
35373;DHT22;21476;51.652;7.852;2022-10-22T13:12:06;18.00;99.90
35373;DHT22;21476;51.652;7.852;2022-10-22T13:14:34;18.00;99.90
35373;DHT22;21476;51.652;7.852;2022-10-22T13:24:54;17.70;99.90
35373;DHT22;21476;51.652;7.852;2022-10-22T13:27:22;17.70;99.90
35373;DHT22;21476;51.652;7.852;2022-10-22T13:29:48;17.70;99.90
35373;DHT22;21476;51.652;7.852;2022-10-22T13:32:30;17.70;99.90
35373;DHT22;21476;51.652;7.852;2022-10-22T13:34:58;17.70;99.90
35373;DHT22;21476;51.652;7.852;2022-10-22T13:37:24;17.80;99.90
35373;DHT22;21476;51.652;7.852;2022-10-22T13:39:50;17.80;99.90
35373;DHT22;21476;51.652;7.852;2022-10-22T13:42:15;17.70;99.90
35373;DHT22;21476;51.652;7.852;2022-10-22T13:44:41;17.70;99.90
35373;DHT22;21476;51.652;7.852;2022-10-22T13:47:26;17.70;99.90
35373;DHT22;21476;51.652;7.852;2022-10-22T13:49:54;17.60;99.90
35373;DHT22;21476;51.652;7.852;2022-10-22T13:52:35;17.70;99.90
35373;DHT22;21476;51.652;7.852;2022-10-22T13:55:28;17.70;99.90
35373;DHT22;21476;51.652;7.852;2022-10-22T13:58:08;17.70;99.90
35373;DHT22;21476;51.652;7.852;2022-10-22T14:00:39;17.70;99.90
35373;DHT22;21476;51.652;7.852;2022-10-22T14:03:12;17.60;99.90
35373;DHT22;21476;51.652;7.852;2022-10-22T14:05:39;17.70;99.90
35373;DHT22;21476;51.652;7.852;2022-10-22T14:08:13;17.60;99.90
35373;DHT22;21476;51.652;7.852;2022-10-22T14:10:39;17.70;99.90
35373;DHT22;21476;51.652;7.852;2022-10-22T14:13:06;17.60;99.90
35373;DHT22;21476;51.652;7.852;2022-10-22T14:15:33;17.50;99.90
35373;DHT22;21476;51.652;7.852;2022-10-22T14:17:59;17.50;99.90
35373;DHT22;21476;51.652;7.852;2022-10-22T14:20:30;17.40;99.90
35373;DHT22;21476;51.652;7.852;2022-10-22T14:23:01;17.30;99.90
35373;DHT22;21476;51.652;7.852;2022-10-22T14:25:29;17.30;99.90
35373;DHT22;21476;51.652;7.852;2022-10-22T14:27:55;17.20;99.90
35373;DHT22;21476;51.652;7.852;2022-10-22T14:30:23;17.10;99.90
35373;DHT22;21476;51.652;7.852;2022-10-22T14:32:50;17.10;99.90
35373;DHT22;21476;51.652;7.852;2022-10-22T14:35:18;17.00;99.90
35373;DHT22;21476;51.652;7.852;2022-10-22T14:37:44;17.10;99.90
35373;DHT22;21476;51.652;7.852;2022-10-22T14:40:13;17.10;99.90
35373;DHT22;21476;51.652;7.852;2022-10-22T14:42:41;17.10;99.90
35373;DHT22;21476;51.652;7.852;2022-10-22T14:45:20;17.10;99.90
35373;DHT22;21476;51.652;7.852;2022-10-22T14:47:47;17.10;99.90
35373;DHT22;21476;51.652;7.852;2022-10-22T14:50:12;17.10;99.90
35373;DHT22;21476;51.652;7.852;2022-10-22T14:52:39;17.10;99.90
35373;DHT22;21476;51.652;7.852;2022-10-22T14:55:11;17.10;99.90
35373;DHT22;21476;51.652;7.852;2022-10-22T14:57:37;17.00;99.90
35373;DHT22;21476;51.652;7.852;2022-10-22T15:00:09;17.00;99.90
35373;DHT22;21476;51.652;7.852;2022-10-22T15:02:35;16.90;99.90
35373;DHT22;21476;51.652;7.852;2022-10-22T15:05:01;16.90;99.90
35373;DHT22;21476;51.652;7.852;2022-10-22T15:07:27;16.80;99.90
35373;DHT22;21476;51.652;7.852;2022-10-22T15:09:53;16.80;99.90
35373;DHT22;21476;51.652;7.852;2022-10-22T15:12:19;16.80;99.90
35373;DHT22;21476;51.652;7.852;2022-10-22T15:14:48;16.90;99.90
35373;DHT22;21476;51.652;7.852;2022-10-22T15:17:15;16.80;99.90
35373;DHT22;21476;51.652;7.852;2022-10-22T15:19:41;16.90;99.90
35373;DHT22;21476;51.652;7.852;2022-10-22T15:22:11;16.90;99.90
35373;DHT22;21476;51.652;7.852;2022-10-22T15:24:37;16.90;99.90
35373;DHT22;21476;51.652;7.852;2022-10-22T15:27:02;16.80;99.90
35373;DHT22;21476;51.652;7.852;2022-10-22T15:29:29;16.70;99.90
35373;DHT22;21476;51.652;7.852;2022-10-22T15:31:55;16.70;99.90
35373;DHT22;21476;51.652;7.852;2022-10-22T15:34:33;16.60;99.90
35373;DHT22;21476;51.652;7.852;2022-10-22T15:37:02;16.50;99.90
35373;DHT22;21476;51.652;7.852;2022-10-22T15:39:28;16.50;99.90
35373;DHT22;21476;51.652;7.852;2022-10-22T15:41:54;16.40;99.90
35373;DHT22;21476;51.652;7.852;2022-10-22T15:44:25;16.20;99.90
35373;DHT22;21476;51.652;7.852;2022-10-22T15:46:52;16.20;99.90
35373;DHT22;21476;51.652;7.852;2022-10-22T15:49:22;16.10;99.90
35373;DHT22;21476;51.652;7.852;2022-10-22T15:51:48;16.00;99.90
35373;DHT22;21476;51.652;7.852;2022-10-22T15:54:16;16.00;99.90
35373;DHT22;21476;51.652;7.852;2022-10-22T15:56:43;15.80;99.90
35373;DHT22;21476;51.652;7.852;2022-10-22T15:59:10;15.70;99.90
35373;DHT22;21476;51.652;7.852;2022-10-22T16:01:37;15.70;99.90
35373;DHT22;21476;51.652;7.852;2022-10-22T16:04:03;15.60;99.90
35373;DHT22;21476;51.652;7.852;2022-10-22T16:06:41;15.60;99.90
35373;DHT22;21476;51.652;7.852;2022-10-22T16:09:09;15.40;99.90
35373;DHT22;21476;51.652;7.852;2022-10-22T16:11:37;15.40;99.90
35373;DHT22;21476;51.652;7.852;2022-10-22T16:14:03;15.30;99.90
35373;DHT22;21476;51.652;7.852;2022-10-22T16:16:31;15.20;99.90
35373;DHT22;21476;51.652;7.852;2022-10-22T16:18:56;15.10;99.90
35373;DHT22;21476;51.652;7.852;2022-10-22T16:21:22;15.00;99.90
35373;DHT22;21476;51.652;7.852;2022-10-22T16:23:49;14.90;99.90
35373;DHT22;21476;51.652;7.852;2022-10-22T16:26:15;14.80;99.90
35373;DHT22;21476;51.652;7.852;2022-10-22T16:28:42;14.70;99.90
35373;DHT22;21476;51.652;7.852;2022-10-22T16:31:10;14.60;99.90
35373;DHT22;21476;51.652;7.852;2022-10-22T16:33:37;14.50;99.90
35373;DHT22;21476;51.652;7.852;2022-10-22T16:36:13;14.40;99.90
35373;DHT22;21476;51.652;7.852;2022-10-22T16:38:39;14.40;99.90
35373;DHT22;21476;51.652;7.852;2022-10-22T16:41:18;14.40;99.90
35373;DHT22;21476;51.652;7.852;2022-10-22T16:43:45;14.30;99.90
35373;DHT22;21476;51.652;7.852;2022-10-22T16:46:14;14.20;99.90
35373;DHT22;21476;51.652;7.852;2022-10-22T16:48:47;14.10;99.90
35373;DHT22;21476;51.652;7.852;2022-10-22T16:51:15;14.10;99.90
35373;DHT22;21476;51.652;7.852;2022-10-22T16:53:41;14.00;99.90
35373;DHT22;21476;51.652;7.852;2022-10-22T16:56:11;13.90;99.90
35373;DHT22;21476;51.652;7.852;2022-10-22T16:58:38;13.80;99.90
35373;DHT22;21476;51.652;7.852;2022-10-22T17:01:08;13.60;99.90
35373;DHT22;21476;51.652;7.852;2022-10-22T17:03:34;13.60;99.90
35373;DHT22;21476;51.652;7.852;2022-10-22T17:06:00;13.50;99.90
35373;DHT22;21476;51.652;7.852;2022-10-22T17:08:26;13.30;99.90
35373;DHT22;21476;51.652;7.852;2022-10-22T17:10:52;13.30;99.90
35373;DHT22;21476;51.652;7.852;2022-10-22T17:13:17;13.20;99.90
35373;DHT22;21476;51.652;7.852;2022-10-22T17:15:43;13.10;99.90
35373;DHT22;21476;51.652;7.852;2022-10-22T17:18:09;13.10;99.90
35373;DHT22;21476;51.652;7.852;2022-10-22T17:20:35;13.10;99.90
35373;DHT22;21476;51.652;7.852;2022-10-22T17:23:00;13.00;99.90
35373;DHT22;21476;51.652;7.852;2022-10-22T17:25:35;13.00;99.90